Time,TemperatureF,DewpointF,PressureIn,WindDirection,WindDirectionDegrees,WindSpeedMPH,WindSpeedGustMPH,Humidity,HourlyPrecipIn,Conditions,Clouds,dailyrainin,SolarRadiationWatts/m^2,SoftwareType,DateUTC
2013-09-15 00:02:00,-999.0,-99.9,-100.00,NW,314,0.0,2.0,-999,-99.99,,,-99.99,0.000000,,2013-09-15 04:02:00,
2013-09-15 00:11:00,48.0,47.0,-100.00,NW,309,0.0,0.0,97,0.00,,,0.00,0.000000,,2013-09-15 04:11:00,
2013-09-15 00:43:00,48.0,47.0,-100.00,NW,309,0.0,0.0,97,0.00,,,0.00,0.000000,,2013-09-15 04:43:00,
2013-09-15 00:55:00,48.0,47.0,-100.00,NW,309,0.0,0.0,97,0.00,,,0.00,0.000000,,2013-09-15 04:55:00,
2013-09-15 01:03:00,48.0,47.0,-100.00,NW,309,0.0,0.0,97,0.00,,,0.00,0.000000,,2013-09-15 05:03:00,
2013-09-15 01:11:00,47.0,46.0,-100.00,North,353,0.0,1.0,97,0.00,,,0.00,0.000000,,2013-09-15 05:11:00,
2013-09-15 01:42:00,47.0,46.0,-100.00,North,353,0.0,1.0,97,0.00,,,0.00,0.000000,,2013-09-15 05:42:00,
2013-09-15 01:52:00,47.0,46.0,-100.00,North,353,0.0,1.0,97,0.00,,,0.00,0.000000,,2013-09-15 05:52:00,
2013-09-15 02:02:00,47.0,46.0,-100.00,North,353,0.0,1.0,97,0.00,,,0.00,0.000000,,2013-09-15 06:02:00,
2013-09-15 02:11:00,47.0,46.0,-100.00,South,171,0.0,0.0,98,0.00,,,0.00,0.000000,,2013-09-15 06:11:00,
2013-09-15 02:42:00,47.0,46.0,-100.00,South,171,0.0,0.0,98,0.00,,,0.00,0.000000,,2013-09-15 06:42:00,
2013-09-15 02:52:00,47.0,46.0,-100.00,South,171,0.0,0.0,98,0.00,,,0.00,0.000000,,2013-09-15 06:52:00,
2013-09-15 03:02:00,47.0,46.0,-100.00,South,171,0.0,0.0,98,0.00,,,0.00,0.000000,,2013-09-15 07:02:00,
2013-09-15 03:11:00,47.0,46.0,-100.00,East,98,0.0,3.0,98,0.00,,,0.00,0.000000,,2013-09-15 07:11:00,
2013-09-15 03:42:00,47.0,46.0,-100.00,East,98,0.0,3.0,98,0.00,,,0.00,0.000000,,2013-09-15 07:42:00,
2013-09-15 03:53:00,47.0,46.0,-100.00,East,98,0.0,3.0,98,0.00,,,0.00,0.000000,,2013-09-15 07:53:00,
2013-09-15 04:02:00,47.0,46.0,-100.00,East,98,0.0,3.0,98,0.00,,,0.00,0.000000,,2013-09-15 08:02:00,
2013-09-15 04:11:00,47.0,46.0,-100.00,SE,125,0.0,0.0,98,0.00,,,0.00,0.000000,,2013-09-15 08:11:00,
2013-09-15 04:43:00,47.0,46.0,-100.00,SE,125,0.0,0.0,98,0.00,,,0.00,0.000000,,2013-09-15 08:43:00,
2013-09-15 04:52:00,47.0,46.0,-100.00,SE,125,0.0,0.0,98,0.00,,,0.00,0.000000,,2013-09-15 08:52:00,
2013-09-15 05:02:00,47.0,46.0,-100.00,SE,125,0.0,0.0,98,0.00,,,0.00,0.000000,,2013-09-15 09:02:00,
2013-09-15 05:11:00,50.0,49.0,-100.00,ESE,116,1.0,2.0,98,0.00,,,0.00,0.000000,,2013-09-15 09:11:00,
2013-09-15 05:44:00,50.0,49.0,-100.00,ESE,116,1.0,2.0,98,0.00,,,0.00,0.000000,,2013-09-15 09:44:00,
2013-09-15 05:54:00,50.0,49.0,-100.00,ESE,116,1.0,2.0,98,0.00,,,0.00,0.000000,,2013-09-15 09:54:00,
2013-09-15 06:03:00,50.0,49.0,-100.00,ESE,116,1.0,2.0,98,0.00,,,0.00,0.000000,,2013-09-15 10:03:00,
2013-09-15 06:11:00,50.0,49.0,-100.00,NNW,333,1.0,3.0,96,0.00,,,0.00,0.000000,,2013-09-15 10:11:00,
2013-09-15 06:43:00,50.0,49.0,-100.00,NNW,333,1.0,3.0,96,0.00,,,0.00,0.000000,,2013-09-15 10:43:00,
2013-09-15 06:53:00,50.0,49.0,-100.00,NNW,333,1.0,3.0,96,0.00,,,0.00,0.000000,,2013-09-15 10:53:00,
2013-09-15 07:02:00,50.0,49.0,-100.00,NNW,333,1.0,3.0,96,0.00,,,0.00,0.000000,,2013-09-15 11:02:00,
2013-09-15 07:11:00,52.0,51.0,-100.00,NNE,30,1.0,2.0,96,0.00,,,0.00,0.000000,,2013-09-15 11:11:00,
2013-09-15 07:42:00,52.0,51.0,-100.00,NNE,30,1.0,2.0,96,0.00,,,0.00,0.000000,,2013-09-15 11:42:00,
2013-09-15 07:52:00,52.0,51.0,-100.00,NNE,30,1.0,2.0,96,0.00,,,0.00,0.000000,,2013-09-15 11:52:00,
2013-09-15 08:02:00,52.0,51.0,-100.00,NNE,30,1.0,2.0,96,0.00,,,0.00,0.000000,,2013-09-15 12:02:00,
2013-09-15 08:11:00,55.0,53.0,-100.00,SW,236,1.0,3.0,92,0.00,,,0.00,72.000000,,2013-09-15 12:11:00,
2013-09-15 08:42:00,55.0,53.0,-100.00,SW,236,1.0,3.0,92,0.00,,,0.00,72.000000,,2013-09-15 12:42:00,
2013-09-15 08:52:00,55.0,53.0,-100.00,SW,236,1.0,3.0,92,0.00,,,0.00,72.000000,,2013-09-15 12:52:00,
2013-09-15 09:02:00,55.0,53.0,-100.00,SW,236,1.0,3.0,92,0.00,,,0.00,72.000000,,2013-09-15 13:02:00,
2013-09-15 09:11:00,63.0,55.0,-100.00,West,269,0.0,0.0,75,0.00,,,0.00,306.000000,,2013-09-15 13:11:00,
2013-09-15 09:53:00,63.0,55.0,-100.00,West,269,0.0,0.0,75,0.00,,,0.00,306.000000,,2013-09-15 13:53:00,
2013-09-15 10:02:00,63.0,55.0,-100.00,West,269,0.0,0.0,75,0.00,,,0.00,306.000000,,2013-09-15 14:02:00,
2013-09-15 15:11:00,74.0,54.0,-100.00,NNW,329,3.0,8.0,49,0.00,,,0.00,701.000000,,2013-09-15 19:11:00,
2013-09-15 15:42:00,74.0,54.0,-100.00,NNW,329,3.0,8.0,49,0.00,,,0.00,701.000000,,2013-09-15 19:42:00,
2013-09-15 15:52:00,74.0,54.0,-100.00,NNW,329,3.0,8.0,49,0.00,,,0.00,701.000000,,2013-09-15 19:52:00,
2013-09-15 16:02:00,74.0,54.0,-100.00,NNW,329,3.0,8.0,49,0.00,,,0.00,701.000000,,2013-09-15 20:02:00,
2013-09-15 16:11:00,73.0,54.0,-100.00,WNW,296,3.0,8.0,52,0.00,,,0.00,585.000000,,2013-09-15 20:11:00,
2013-09-15 16:42:00,73.0,54.0,-100.00,WNW,296,3.0,8.0,52,0.00,,,0.00,585.000000,,2013-09-15 20:42:00,
2013-09-15 16:53:00,73.0,54.0,-100.00,WNW,296,3.0,8.0,52,0.00,,,0.00,585.000000,,2013-09-15 20:53:00,
2013-09-15 17:02:00,73.0,54.0,-100.00,WNW,296,3.0,8.0,52,0.00,,,0.00,585.000000,,2013-09-15 21:02:00,
2013-09-15 17:11:00,71.0,55.0,-100.00,NW,313,2.0,9.0,57,0.00,,,0.00,332.000000,,2013-09-15 21:11:00,
2013-09-15 17:44:00,71.0,55.0,-100.00,NW,313,2.0,9.0,57,0.00,,,0.00,332.000000,,2013-09-15 21:44:00,
2013-09-15 17:54:00,71.0,55.0,-100.00,NW,313,2.0,9.0,57,0.00,,,0.00,332.000000,,2013-09-15 21:54:00,
2013-09-15 18:04:00,71.0,55.0,-100.00,NW,313,2.0,9.0,57,0.00,,,0.00,332.000000,,2013-09-15 22:04:00,
2013-09-15 18:11:00,69.0,55.0,-100.00,NNW,332,2.0,5.0,60,0.00,,,0.00,169.000000,,2013-09-15 22:11:00,
2013-09-15 18:44:00,69.0,55.0,-100.00,NNW,332,2.0,5.0,60,0.00,,,0.00,169.000000,,2013-09-15 22:44:00,
2013-09-15 18:54:00,69.0,55.0,-100.00,NNW,332,2.0,5.0,60,0.00,,,0.00,169.000000,,2013-09-15 22:54:00,
2013-09-15 19:02:00,69.0,55.0,-100.00,NNW,332,2.0,5.0,60,0.00,,,0.00,169.000000,,2013-09-15 23:02:00,
2013-09-15 19:11:00,65.0,56.0,-100.00,NNW,339,0.0,3.0,73,0.00,,,0.00,57.000000,,2013-09-15 23:11:00,
2013-09-15 19:42:00,65.0,56.0,-100.00,NNW,339,0.0,3.0,73,0.00,,,0.00,57.000000,,2013-09-15 23:42:00,
2013-09-15 19:53:00,65.0,56.0,-100.00,NNW,339,0.0,3.0,73,0.00,,,0.00,57.000000,,2013-09-15 23:53:00,
2013-09-15 20:01:00,65.0,56.0,-100.00,NNW,339,0.0,3.0,73,0.00,,,0.00,57.000000,,2013-09-16 00:01:00,
2013-09-15 20:11:00,61.0,55.0,-100.00,NW,325,1.0,3.0,80,0.00,,,0.00,8.000000,,2013-09-16 00:11:00,
2013-09-15 20:42:00,61.0,55.0,-100.00,NW,325,1.0,3.0,80,0.00,,,0.00,8.000000,,2013-09-16 00:42:00,
2013-09-15 20:52:00,61.0,55.0,-100.00,NW,325,1.0,3.0,80,0.00,,,0.00,8.000000,,2013-09-16 00:52:00,
2013-09-15 21:02:00,61.0,55.0,-100.00,NW,325,1.0,3.0,80,0.00,,,0.00,8.000000,,2013-09-16 01:02:00,
2013-09-15 21:11:00,59.0,55.0,-100.00,ENE,66,0.0,2.0,86,0.00,,,0.00,0.000000,,2013-09-16 01:11:00,
2013-09-15 21:42:00,59.0,55.0,-100.00,ENE,66,0.0,2.0,86,0.00,,,0.00,0.000000,,2013-09-16 01:42:00,
2013-09-15 21:52:00,59.0,55.0,-100.00,ENE,66,0.0,2.0,86,0.00,,,0.00,0.000000,,2013-09-16 01:52:00,
2013-09-15 22:02:00,59.0,55.0,-100.00,ENE,66,0.0,2.0,86,0.00,,,0.00,0.000000,,2013-09-16 02:02:00,
2013-09-15 22:11:00,57.0,55.0,-100.00,SSW,203,1.0,1.0,93,0.00,,,-99.99,0.000000,,2013-09-16 02:11:00,
2013-09-15 22:42:00,57.0,55.0,-100.00,SSW,203,1.0,1.0,93,0.00,,,-99.99,0.000000,,2013-09-16 02:42:00,
2013-09-15 22:52:00,57.0,55.0,-100.00,SSW,203,1.0,1.0,93,0.00,,,-99.99,0.000000,,2013-09-16 02:52:00,
2013-09-15 23:02:00,57.0,55.0,-100.00,SSW,203,1.0,1.0,93,0.00,,,-99.99,0.000000,,2013-09-16 03:02:00,
2013-09-15 23:11:00,57.0,54.0,-100.00,NNW,327,0.0,3.0,89,0.00,,,0.00,0.000000,,2013-09-16 03:11:00,
2013-09-15 23:45:00,57.0,54.0,-100.00,NNW,327,0.0,3.0,89,0.00,,,0.00,0.000000,,2013-09-16 03:45:00,
2013-09-15 23:55:00,57.0,54.0,-100.00,NNW,327,0.0,3.0,89,0.00,,,0.00,0.000000,,2013-09-16 03:55:00,